createdAt,value
2022-11-17T00:00:01.443Z,98292.44
2022-11-17T00:05:03.283Z,98288.00
2022-11-17T00:10:05.094Z,98263.22
2022-11-17T00:15:06.676Z,98255.88
2022-11-17T00:20:29.354Z,98248.06
2022-11-17T00:25:30.656Z,98241.91
2022-11-17T00:30:50.598Z,98243.09
2022-11-17T00:35:54.270Z,98238.56
2022-11-17T00:40:55.533Z,98234.91
2022-11-17T00:45:56.804Z,98223.97
2022-11-17T00:51:02.751Z,98208.34
2022-11-17T00:56:04.160Z,98199.41
2022-11-17T01:01:05.873Z,98179.75
2022-11-17T01:06:10.175Z,98166.97
2022-11-17T01:11:19.383Z,98170.31
2022-11-17T01:16:21.311Z,98162.69
2022-11-17T01:21:24.984Z,98162.34
2022-11-17T01:26:29.074Z,98149.94
2022-11-17T01:31:36.199Z,98136.28
2022-11-17T01:36:59.056Z,98121.97
2022-11-17T01:42:11.681Z,98126.63
2022-11-17T01:47:38.265Z,98103.31
2022-11-17T01:52:40.969Z,98093.69
2022-11-17T01:57:49.804Z,98073.38
2022-11-17T02:02:51.837Z,98068.41
2022-11-17T02:07:55.048Z,98048.97
2022-11-17T02:12:56.561Z,98056.84
2022-11-17T02:17:59.018Z,98042.25
2022-11-17T02:23:33.499Z,98041.69
2022-11-17T02:28:40.207Z,98026.91
2022-11-17T02:33:41.402Z,98018.75
2022-11-17T02:38:57.221Z,98021.59
2022-11-17T02:44:21.634Z,98006.28
2022-11-17T02:49:36.473Z,98001.94
2022-11-17T02:54:37.888Z,97985.97
2022-11-17T02:59:46.013Z,97985.63
2022-11-17T03:05:14.588Z,97990.31
2022-11-17T03:10:43.836Z,97970.66
2022-11-17T03:15:57.842Z,97965.81
2022-11-17T03:21:05.097Z,97968.28
2022-11-17T03:26:12.236Z,97956.69
2022-11-17T03:31:15.043Z,97942.75
2022-11-17T03:36:22.210Z,97938.81
2022-11-17T03:41:25.623Z,97918.81
2022-11-17T03:46:29.407Z,97917.97
2022-11-17T03:51:33.050Z,97923.47
2022-11-17T03:56:49.052Z,97914.19
2022-11-17T04:01:51.073Z,97908.22
2022-11-17T04:06:55.529Z,97894.94
2022-11-17T04:12:15.435Z,97901.06
2022-11-17T04:17:16.704Z,97896.41
2022-11-17T04:22:17.995Z,97892.72
2022-11-17T04:27:38.160Z,97886.38
2022-11-17T04:32:39.412Z,97886.50
2022-11-17T04:37:40.672Z,97897.50
2022-11-17T04:42:41.944Z,97899.63
2022-11-17T04:47:43.217Z,97893.09
2022-11-17T04:52:44.452Z,97895.13
2022-11-17T04:57:45.708Z,97902.09
2022-11-17T05:02:46.979Z,97886.13
2022-11-17T05:07:48.211Z,97888.78
2022-11-17T05:13:08.758Z,97872.63
2022-11-17T05:18:10.031Z,97880.31
2022-11-17T05:23:29.697Z,97881.81
2022-11-17T05:28:31.344Z,97885.94
2022-11-17T05:33:37.556Z,97892.25
2022-11-17T05:38:39.407Z,97885.94
2022-11-17T05:43:40.700Z,97901.53
2022-11-17T05:48:41.943Z,97890.88
2022-11-17T05:53:43.262Z,97877.75
2022-11-17T05:58:47.105Z,97891.25
2022-11-17T06:03:53.803Z,97901.91
2022-11-17T06:08:55.759Z,97902.91
2022-11-17T06:13:57.032Z,97908.66
2022-11-17T06:19:15.814Z,97885.06
2022-11-17T06:24:17.547Z,97877.84
2022-11-17T06:29:19.448Z,97879.88
2022-11-17T06:34:20.890Z,97874.53
2022-11-17T06:39:22.132Z,97868.56
2022-11-17T06:44:23.366Z,97881.13
2022-11-17T06:49:24.793Z,97878.47
2022-11-17T06:54:26.611Z,97866.81
2022-11-17T06:59:28.022Z,97872.13
2022-11-17T07:04:29.391Z,97872.41
2022-11-17T07:09:30.833Z,97866.44
2022-11-17T07:14:32.177Z,97861.84
2022-11-17T07:19:33.634Z,97856.16
2022-11-17T07:24:34.977Z,97846.88
2022-11-17T07:29:36.414Z,97855.00
2022-11-17T07:34:37.755Z,97845.25
2022-11-17T07:39:39.179Z,97845.88
2022-11-17T07:44:40.502Z,97851.56
2022-11-17T07:49:41.872Z,97842.91
2022-11-17T07:54:43.257Z,97829.34
2022-11-17T07:59:44.592Z,97835.44
2022-11-17T08:04:45.892Z,97832.97
2022-11-17T08:09:47.179Z,97839.50
2022-11-17T08:14:48.491Z,97843.34
2022-11-17T08:19:49.852Z,97843.78
2022-11-17T08:24:51.147Z,97847.59
2022-11-17T08:29:52.653Z,97837.94
2022-11-17T08:34:54.195Z,97843.56
2022-11-17T08:39:55.715Z,97840.50
2022-11-17T08:44:57.106Z,97834.56
2022-11-17T08:49:58.487Z,97832.41
2022-11-17T08:55:00.079Z,97834.97
2022-11-17T09:00:02.207Z,97818.84
2022-11-17T09:05:04.252Z,97833.88
2022-11-17T09:10:06.727Z,97831.09
2022-11-17T09:15:08.578Z,97840.13
2022-11-17T09:20:10.493Z,97841.63
2022-11-17T09:25:13.652Z,97858.66
2022-11-17T09:30:15.616Z,97870.72
2022-11-17T09:35:18.303Z,97878.47
2022-11-17T09:40:20.891Z,97895.66
2022-11-17T09:45:27.822Z,97891.06
2022-11-17T09:50:34.777Z,97891.31
2022-11-17T09:55:38.958Z,97906.09
2022-11-17T10:00:43.375Z,97914.97
2022-11-17T10:05:44.842Z,97909.78
2022-11-17T10:10:49.321Z,97921.69
2022-11-17T10:15:57.603Z,97927.81
2022-11-17T10:20:58.932Z,97924.28
2022-11-17T10:26:00.319Z,97931.28
2022-11-17T10:31:04.834Z,97922.00
2022-11-17T10:36:14.846Z,97931.81
2022-11-17T10:41:20.087Z,97932.59
2022-11-17T10:46:22.222Z,97940.56
2022-11-17T10:51:26.513Z,97940.81
2022-11-17T10:56:29.696Z,97940.84
2022-11-17T11:01:37.296Z,97934.34
2022-11-17T11:06:38.591Z,97935.78
2022-11-17T11:11:48.175Z,97939.72
2022-11-17T11:16:50.907Z,97933.50
2022-11-17T11:22:30.464Z,97930.41
2022-11-17T11:27:47.781Z,97935.25
2022-11-17T11:33:23.716Z,97943.94
2022-11-17T11:38:37.217Z,97952.09
2022-11-17T11:44:00.323Z,97959.09
2022-11-17T11:49:16.452Z,97962.63
2022-11-17T11:54:40.542Z,97963.25
2022-11-17T11:59:50.606Z,97953.81
2022-11-17T12:05:17.851Z,97968.38
2022-11-17T12:10:36.154Z,97969.91
2022-11-17T12:15:37.722Z,97971.09
2022-11-17T12:20:39.130Z,97969.72
2022-11-17T12:25:53.875Z,97961.06
2022-11-17T12:31:10.122Z,97957.75
2022-11-17T12:36:32.326Z,97960.53
2022-11-17T12:41:48.607Z,97976.19
2022-11-17T12:46:59.438Z,97971.69
2022-11-17T12:52:07.823Z,97978.31
2022-11-17T12:57:31.997Z,97981.81
2022-11-17T13:03:10.165Z,97986.59
2022-11-17T13:08:21.167Z,97985.22
2022-11-17T13:13:24.272Z,97984.28
2022-11-17T13:18:36.583Z,97993.69
2022-11-17T13:23:44.281Z,97975.44
2022-11-17T13:28:46.249Z,97983.66
2022-11-17T13:34:07.026Z,97988.22
2022-11-17T13:39:16.856Z,98007.41
2022-11-17T13:44:23.061Z,98010.81
2022-11-17T13:49:32.236Z,98019.13
2022-11-17T13:54:34.837Z,98027.38
2022-11-17T13:59:38.392Z,98037.44
2022-11-17T14:04:39.666Z,98031.44
2022-11-17T14:09:40.915Z,98026.41
2022-11-17T14:14:44.094Z,98014.47
2022-11-17T14:19:46.620Z,98018.47
2022-11-17T14:24:47.886Z,98015.16
2022-11-17T14:29:49.157Z,98028.47
2022-11-17T14:34:50.459Z,98023.66
2022-11-17T14:39:51.788Z,98041.69
2022-11-17T14:44:53.151Z,98043.22
2022-11-17T14:49:54.636Z,98038.06
2022-11-17T14:54:55.975Z,98030.44
2022-11-17T14:59:57.413Z,98035.31
2022-11-17T15:04:59.973Z,98035.09
2022-11-17T15:10:01.562Z,98038.00
2022-11-17T15:15:04.945Z,98032.13
2022-11-17T15:20:07.092Z,98057.81
2022-11-17T15:25:09.213Z,98055.84
2022-11-17T15:30:10.986Z,98072.69
2022-11-17T15:35:12.276Z,98075.16
2022-11-17T15:40:19.036Z,98061.38
2022-11-17T15:45:20.677Z,98064.34
2022-11-17T15:50:22.026Z,98061.41
2022-11-17T15:55:23.373Z,98061.47
2022-11-17T16:00:24.648Z,98060.69
2022-11-17T16:05:26.120Z,98074.13
2022-11-17T16:10:27.547Z,98078.59
2022-11-17T16:15:28.876Z,98078.97
2022-11-17T16:20:30.170Z,98081.38
2022-11-17T16:25:31.627Z,98077.06
2022-11-17T16:30:35.605Z,98083.13
2022-11-17T16:35:38.042Z,98087.91
2022-11-17T16:40:39.880Z,98092.84
2022-11-17T16:45:44.568Z,98092.13
2022-11-17T16:50:46.963Z,98087.88
2022-11-17T16:55:48.240Z,98082.56
2022-11-17T17:00:49.546Z,98083.19
2022-11-17T17:05:50.861Z,98094.41
2022-11-17T17:10:52.137Z,98095.81
2022-11-17T17:15:53.460Z,98097.53
2022-11-17T17:20:54.730Z,98109.84
2022-11-17T17:26:06.821Z,98107.63
2022-11-17T17:31:08.336Z,98101.63
2022-11-17T17:36:14.668Z,98107.50
2022-11-17T17:41:18.579Z,98116.06
2022-11-17T17:46:19.877Z,98115.97
2022-11-17T17:51:25.340Z,98111.81
2022-11-17T17:56:26.684Z,98109.63
2022-11-17T18:01:30.403Z,98123.66
2022-11-17T18:06:39.896Z,98129.59
2022-11-17T18:11:49.418Z,98141.66
2022-11-17T18:16:51.576Z,98161.41
2022-11-17T18:21:52.911Z,98147.09
2022-11-17T18:26:54.274Z,98148.97
2022-11-17T18:31:55.711Z,98159.03
2022-11-17T18:36:57.072Z,98156.38
2022-11-17T18:41:58.338Z,98159.66
2022-11-17T18:47:02.992Z,98169.34
2022-11-17T18:52:05.230Z,98150.53
2022-11-17T18:57:07.630Z,98154.25
2022-11-17T19:02:08.907Z,98168.09
2022-11-17T19:07:10.352Z,98179.03
2022-11-17T19:12:12.567Z,98156.72
2022-11-17T19:17:13.856Z,98151.41
2022-11-17T19:22:15.138Z,98159.03
2022-11-17T19:27:16.491Z,98151.75
2022-11-17T19:32:17.829Z,98154.41
2022-11-17T19:37:19.114Z,98171.59
2022-11-17T19:42:20.439Z,98163.72
2022-11-17T19:47:21.856Z,98174.72
2022-11-17T19:52:23.107Z,98186.00
2022-11-17T19:57:24.449Z,98188.84
2022-11-17T20:02:25.735Z,98198.56
2022-11-17T20:07:27.222Z,98203.63
2022-11-17T20:12:28.806Z,98205.47
2022-11-17T20:17:30.126Z,98200.69
2022-11-17T20:22:31.793Z,98197.16
2022-11-17T20:27:33.267Z,98192.47
2022-11-17T20:32:35.450Z,98179.88
2022-11-17T20:37:36.738Z,98187.84
2022-11-17T20:42:37.998Z,98198.00
2022-11-17T20:47:39.438Z,98203.00
2022-11-17T20:52:40.943Z,98201.78
2022-11-17T20:57:42.286Z,98218.38
2022-11-17T21:02:43.606Z,98221.03
2022-11-17T21:07:44.993Z,98214.59
2022-11-17T21:12:46.372Z,98233.69
2022-11-17T21:18:06.227Z,98229.88
2022-11-17T21:23:07.487Z,98234.34
2022-11-17T21:28:09.482Z,98253.63
2022-11-17T21:33:10.835Z,98254.81
2022-11-17T21:38:12.242Z,98256.66
2022-11-17T21:43:13.524Z,98266.25
2022-11-17T21:48:14.787Z,98268.06
2022-11-17T21:53:16.098Z,98258.91
2022-11-17T21:58:17.368Z,98253.63
2022-11-17T22:03:18.647Z,98254.97
2022-11-17T22:08:19.944Z,98249.31
2022-11-17T22:13:21.190Z,98262.63
2022-11-17T22:18:22.666Z,98267.06
2022-11-17T22:23:24.042Z,98278.53
2022-11-17T22:28:26.593Z,98289.50
2022-11-17T22:33:28.933Z,98272.03
2022-11-17T22:38:31.748Z,98279.84
2022-11-17T22:43:33.435Z,98285.50
2022-11-17T22:48:36.561Z,98279.69
2022-11-17T22:53:38.125Z,98272.22
2022-11-17T22:58:39.434Z,98289.84
2022-11-17T23:03:40.742Z,98291.19
2022-11-17T23:08:42.041Z,98277.69
2022-11-17T23:13:43.285Z,98273.81
2022-11-17T23:18:44.554Z,98271.78
2022-11-17T23:23:45.811Z,98279.59
2022-11-17T23:28:47.106Z,98274.28
2022-11-17T23:33:48.728Z,98268.78
2022-11-17T23:38:51.153Z,98277.97
2022-11-17T23:43:53.924Z,98277.63
2022-11-17T23:48:56.938Z,98285.44
2022-11-17T23:54:00.935Z,98283.34
2022-11-17T23:59:02.334Z,98296.34
